createdAt,value
2023-05-13T00:02:02.756Z,3.80
2023-05-13T00:04:31.753Z,4.60
2023-05-13T00:07:00.750Z,3.80
2023-05-13T00:09:29.763Z,3.90
2023-05-13T00:11:58.905Z,3.60
2023-05-13T00:14:28.077Z,4.00
2023-05-13T00:16:58.869Z,3.80
2023-05-13T00:19:27.998Z,4.20
2023-05-13T00:21:57.054Z,4.20
2023-05-13T00:24:26.400Z,4.60
2023-05-13T00:26:55.900Z,4.00
2023-05-13T00:29:25.187Z,3.60
2023-05-13T00:31:54.241Z,4.00
2023-05-13T00:34:24.441Z,4.50
2023-05-13T00:36:53.734Z,3.80
2023-05-13T00:39:23.175Z,3.90
2023-05-13T00:41:52.076Z,4.00
2023-05-13T00:44:21.176Z,4.20
2023-05-13T00:46:50.575Z,4.30
2023-05-13T00:49:19.772Z,4.00
2023-05-13T00:51:48.887Z,3.90
2023-05-13T00:54:17.835Z,4.30
2023-05-13T00:56:46.789Z,3.90
2023-05-13T00:59:15.757Z,3.70
2023-05-13T01:02:00.576Z,4.10
2023-05-13T01:05:07.078Z,4.80
2023-05-13T01:07:39.315Z,4.60
2023-05-13T01:10:13.196Z,4.30
2023-05-13T01:12:43.985Z,4.50
2023-05-13T01:15:16.423Z,4.10
2023-05-13T01:18:06.301Z,4.40
2023-05-13T01:20:35.633Z,4.60
2023-05-13T01:23:04.668Z,4.70
2023-05-13T01:25:33.526Z,4.40
2023-05-13T01:28:02.649Z,4.30
2023-05-13T01:30:31.698Z,4.40
2023-05-13T01:33:01.395Z,3.90
2023-05-13T01:35:32.076Z,3.80
2023-05-13T01:38:03.043Z,4.20
2023-05-13T01:40:33.349Z,4.10
2023-05-13T01:43:02.521Z,4.20
2023-05-13T01:45:33.280Z,4.00
2023-05-13T01:48:02.332Z,4.40
2023-05-13T01:50:31.495Z,3.80
2023-05-13T01:53:00.347Z,4.20
2023-05-13T01:55:29.593Z,4.10
2023-05-13T01:57:58.572Z,4.00
2023-05-13T02:00:27.873Z,3.90
2023-05-13T02:02:56.948Z,4.30
2023-05-13T02:05:25.986Z,4.00
2023-05-13T02:07:55.053Z,4.10
2023-05-13T02:10:24.107Z,4.40
2023-05-13T02:12:53.436Z,4.10
2023-05-13T02:15:22.478Z,4.00
2023-05-13T02:17:51.594Z,3.70
2023-05-13T02:20:20.791Z,4.30
2023-05-13T02:22:49.791Z,4.00
2023-05-13T02:25:18.763Z,4.60
2023-05-13T02:27:47.974Z,4.30
2023-05-13T02:30:16.914Z,4.40
2023-05-13T02:32:46.389Z,4.30
2023-05-13T02:35:15.515Z,4.30
2023-05-13T02:37:44.545Z,4.10
2023-05-13T02:40:14.093Z,4.40
2023-05-13T02:42:43.552Z,4.20
2023-05-13T02:45:12.772Z,4.30
2023-05-13T02:47:41.788Z,4.60
2023-05-13T02:50:12.592Z,4.00
2023-05-13T02:52:41.682Z,3.90
2023-05-13T02:55:10.946Z,4.20
2023-05-13T02:57:40.266Z,4.00
2023-05-13T03:00:09.784Z,4.20
2023-05-13T03:02:38.995Z,4.20
2023-05-13T03:05:08.531Z,4.40
2023-05-13T03:07:37.554Z,4.00
2023-05-13T03:10:07.082Z,4.80
2023-05-13T03:12:36.396Z,3.90
2023-05-13T03:15:05.681Z,4.50
2023-05-13T03:17:34.762Z,4.20
2023-05-13T03:20:04.187Z,4.20
2023-05-13T03:22:33.520Z,4.00
2023-05-13T03:25:02.349Z,3.70
2023-05-13T03:27:31.294Z,4.80
2023-05-13T03:30:00.561Z,4.40
2023-05-13T03:32:31.588Z,3.70
2023-05-13T03:35:03.863Z,4.20
2023-05-13T03:37:32.840Z,4.30
2023-05-13T03:40:02.128Z,4.50
2023-05-13T03:42:31.180Z,3.60
2023-05-13T03:45:00.457Z,4.10
2023-05-13T03:47:29.795Z,4.30
2023-05-13T03:49:58.912Z,4.30
2023-05-13T03:52:28.124Z,3.40
2023-05-13T03:54:57.191Z,4.50
2023-05-13T03:57:26.129Z,3.80
2023-05-13T03:59:55.446Z,3.90
2023-05-13T04:02:24.640Z,3.70
2023-05-13T04:04:53.664Z,3.70
2023-05-13T04:07:22.611Z,4.50
2023-05-13T04:09:51.527Z,3.50
2023-05-13T04:12:20.364Z,3.90
2023-05-13T04:14:49.362Z,3.50
2023-05-13T04:17:18.297Z,4.10
2023-05-13T04:19:47.271Z,3.70
2023-05-13T04:22:16.243Z,3.70
2023-05-13T04:24:45.374Z,4.00
2023-05-13T04:27:14.313Z,3.40
2023-05-13T04:29:43.297Z,3.60
2023-05-13T04:32:16.276Z,4.00
2023-05-13T04:34:45.300Z,3.90
2023-05-13T04:37:14.292Z,3.90
2023-05-13T04:39:45.064Z,3.60
2023-05-13T04:42:14.766Z,3.70
2023-05-13T04:44:43.898Z,4.20
2023-05-13T04:47:13.147Z,3.60
2023-05-13T04:49:42.615Z,3.70
2023-05-13T04:52:13.273Z,3.80
2023-05-13T04:54:42.965Z,4.10
2023-05-13T04:57:12.410Z,3.90
2023-05-13T04:59:41.453Z,3.40
2023-05-13T05:02:10.772Z,3.80
2023-05-13T05:04:39.792Z,3.60
2023-05-13T05:07:08.863Z,4.20
2023-05-13T05:09:37.918Z,3.70
2023-05-13T05:12:07.655Z,3.80
2023-05-13T05:14:38.407Z,3.80
2023-05-13T05:17:07.876Z,3.40
2023-05-13T05:19:36.864Z,3.70
2023-05-13T05:22:05.776Z,3.60
2023-05-13T05:24:34.970Z,3.60
2023-05-13T05:27:04.130Z,3.50
2023-05-13T05:29:32.958Z,3.20
2023-05-13T05:32:01.984Z,2.60
2023-05-13T05:34:31.524Z,4.40
2023-05-13T05:37:00.464Z,3.30
2023-05-13T05:39:29.297Z,3.20
2023-05-13T05:41:58.260Z,3.10
2023-05-13T05:44:27.387Z,2.80
2023-05-13T05:46:56.462Z,3.20
2023-05-13T05:49:25.478Z,2.80
2023-05-13T05:51:54.488Z,2.90
2023-05-13T05:54:23.501Z,2.50
2023-05-13T05:56:52.462Z,2.60
2023-05-13T05:59:21.343Z,2.60
2023-05-13T06:01:50.408Z,2.60
2023-05-13T06:04:19.520Z,3.20
2023-05-13T06:06:48.946Z,2.70
2023-05-13T06:09:17.947Z,2.70
2023-05-13T06:11:47.198Z,2.70
2023-05-13T06:14:17.229Z,2.70
2023-05-13T06:16:46.846Z,2.60
2023-05-13T06:19:15.927Z,2.40
2023-05-13T06:21:45.558Z,2.50
2023-05-13T06:24:14.966Z,2.40
2023-05-13T06:26:45.602Z,2.00
2023-05-13T06:29:14.659Z,2.60
2023-05-13T06:31:43.765Z,2.20
2023-05-13T06:34:16.712Z,2.20
2023-05-13T06:36:45.872Z,2.50
2023-05-13T06:39:15.045Z,2.40
2023-05-13T06:41:44.133Z,2.10
2023-05-13T06:44:13.080Z,2.10
2023-05-13T06:46:42.045Z,2.10
2023-05-13T06:49:11.046Z,2.60
2023-05-13T06:51:40.105Z,2.30
2023-05-13T06:54:09.344Z,2.40
2023-05-13T06:56:38.374Z,2.40
2023-05-13T06:59:07.315Z,2.50
2023-05-13T07:01:36.265Z,2.10
2023-05-13T07:04:05.480Z,1.90
2023-05-13T07:06:34.648Z,2.10
2023-05-13T07:09:08.188Z,2.00
2023-05-13T07:11:37.496Z,1.80
2023-05-13T07:14:06.409Z,2.50
2023-05-13T07:16:35.341Z,2.30
2023-05-13T07:19:04.452Z,2.00
2023-05-13T07:21:33.396Z,2.10
2023-05-13T07:24:05.162Z,2.50
2023-05-13T07:26:34.051Z,2.20
2023-05-13T07:29:02.982Z,3.60
2023-05-13T07:31:31.968Z,2.10
2023-05-13T07:34:01.121Z,2.30
2023-05-13T07:36:30.054Z,2.70
2023-05-13T07:38:59.485Z,2.40
2023-05-13T07:41:28.580Z,2.40
2023-05-13T07:43:57.666Z,2.10
2023-05-13T07:46:26.672Z,2.10
2023-05-13T07:48:55.672Z,2.20
2023-05-13T07:51:24.627Z,2.00
2023-05-13T07:53:53.719Z,2.40
2023-05-13T07:56:22.786Z,2.50
2023-05-13T07:58:51.809Z,2.20
2023-05-13T08:01:20.683Z,2.70
2023-05-13T08:03:49.722Z,2.60
2023-05-13T08:06:18.892Z,2.10
2023-05-13T08:08:47.774Z,2.10
2023-05-13T08:11:16.948Z,2.20
2023-05-13T08:13:45.958Z,2.50
2023-05-13T08:16:14.954Z,3.60
2023-05-13T08:18:44.118Z,2.50
2023-05-13T08:21:13.249Z,2.20
2023-05-13T08:23:45.905Z,2.40
2023-05-13T08:26:15.448Z,2.60
2023-05-13T08:28:44.613Z,2.60
2023-05-13T08:31:13.951Z,2.00
2023-05-13T08:33:44.921Z,1.90
2023-05-13T08:36:15.249Z,2.80
2023-05-13T08:38:44.388Z,2.30
2023-05-13T08:41:14.375Z,2.30
2023-05-13T08:43:44.129Z,2.30
2023-05-13T08:46:13.153Z,2.40
2023-05-13T08:48:42.735Z,2.50
2023-05-13T08:51:12.624Z,2.50
2023-05-13T08:53:42.925Z,5.70
2023-05-13T08:56:12.746Z,2.30
2023-05-13T08:58:41.659Z,2.40
2023-05-13T09:01:10.790Z,2.50
2023-05-13T09:04:00.072Z,2.30
2023-05-13T09:06:29.866Z,2.30
2023-05-13T09:08:59.243Z,2.30
2023-05-13T09:11:28.894Z,2.70
2023-05-13T09:14:03.777Z,2.30
2023-05-13T09:16:33.048Z,2.50
2023-05-13T09:19:04.961Z,2.30
2023-05-13T09:21:38.275Z,2.40
2023-05-13T09:24:18.849Z,2.20
2023-05-13T09:26:49.753Z,2.20
2023-05-13T09:29:21.500Z,2.50
2023-05-13T09:31:55.748Z,2.20
2023-05-13T09:34:30.044Z,2.70
2023-05-13T09:37:04.238Z,2.20
2023-05-13T09:39:38.516Z,2.50
2023-05-13T09:42:17.819Z,2.50
2023-05-13T09:44:47.893Z,2.50
2023-05-13T09:47:17.962Z,2.50
2023-05-13T09:49:56.817Z,2.90
2023-05-13T09:52:25.749Z,2.80
2023-05-13T09:54:57.452Z,2.40
2023-05-13T09:57:29.512Z,2.30
2023-05-13T10:00:00.011Z,2.40
2023-05-13T10:02:29.161Z,4.50
2023-05-13T10:04:58.505Z,3.10
2023-05-13T10:07:28.389Z,2.40
2023-05-13T10:09:59.258Z,2.40
2023-05-13T10:12:29.027Z,2.40
2023-05-13T10:14:58.679Z,2.30
2023-05-13T10:17:27.971Z,2.40
2023-05-13T10:19:57.385Z,2.20
2023-05-13T10:22:30.267Z,2.60
2023-05-13T10:25:00.746Z,2.50
2023-05-13T10:27:32.775Z,2.50
2023-05-13T10:30:03.668Z,2.40
2023-05-13T10:32:33.223Z,2.50
2023-05-13T10:35:05.498Z,2.30
2023-05-13T10:37:43.558Z,2.70
2023-05-13T10:40:24.990Z,2.60
2023-05-13T10:43:20.368Z,2.30
2023-05-13T10:48:25.754Z,2.40
2023-05-13T10:51:02.704Z,2.60
2023-05-13T10:53:36.188Z,2.30
2023-05-13T10:56:08.178Z,2.50
2023-05-13T10:58:38.406Z,2.40
2023-05-13T11:01:28.584Z,2.30
2023-05-13T11:04:00.682Z,1.90
2023-05-13T11:06:37.495Z,2.60
2023-05-13T11:09:08.272Z,2.40
2023-05-13T11:11:37.996Z,2.40
2023-05-13T11:14:19.398Z,2.60
2023-05-13T11:17:01.748Z,2.70
2023-05-13T11:19:38.429Z,2.10
2023-05-13T11:22:21.187Z,2.20
2023-05-13T11:25:07.817Z,2.10
2023-05-13T11:27:41.532Z,2.30
2023-05-13T11:30:24.604Z,2.40
2023-05-13T11:32:58.553Z,2.50
2023-05-13T11:35:30.018Z,2.10
2023-05-13T11:40:32.011Z,2.30
2023-05-13T11:43:01.623Z,2.50
2023-05-13T11:45:31.157Z,2.30
2023-05-13T11:48:18.182Z,2.30
2023-05-13T11:50:47.111Z,2.20
2023-05-13T11:53:21.554Z,2.20
2023-05-13T11:55:50.524Z,2.20
2023-05-13T11:58:21.048Z,2.30
2023-05-13T12:00:50.007Z,2.00
2023-05-13T12:03:19.618Z,3.00
2023-05-13T12:05:49.406Z,2.40
2023-05-13T12:08:18.392Z,2.10
2023-05-13T12:10:47.328Z,2.10
2023-05-13T12:13:16.632Z,1.90
2023-05-13T12:15:45.782Z,2.10
2023-05-13T12:18:14.952Z,2.00
2023-05-13T12:20:44.858Z,2.00
2023-05-13T12:23:14.247Z,2.20
2023-05-13T12:25:48.354Z,2.40
2023-05-13T12:28:27.083Z,1.90
2023-05-13T12:31:00.520Z,2.30
2023-05-13T12:33:49.544Z,2.10
2023-05-13T12:36:23.398Z,2.10
2023-05-13T12:39:00.954Z,2.40
2023-05-13T12:41:32.712Z,2.10
2023-05-13T12:44:09.787Z,2.30
2023-05-13T12:46:39.952Z,2.40
2023-05-13T12:49:09.618Z,2.50
2023-05-13T12:51:38.833Z,2.40
2023-05-13T12:54:07.944Z,2.40
2023-05-13T12:56:36.897Z,2.70
2023-05-13T12:59:06.547Z,2.10
2023-05-13T13:01:36.615Z,2.50
2023-05-13T13:04:05.941Z,2.10
2023-05-13T13:06:35.093Z,2.10
2023-05-13T13:09:05.488Z,2.30
2023-05-13T13:11:34.624Z,2.60
2023-05-13T13:14:03.576Z,2.50
2023-05-13T13:16:33.038Z,2.50
2023-05-13T13:19:02.245Z,2.50
2023-05-13T13:21:32.225Z,2.30
2023-05-13T13:24:01.324Z,2.70
2023-05-13T13:26:30.785Z,2.20
2023-05-13T13:28:59.683Z,2.20
2023-05-13T13:31:29.015Z,3.30
2023-05-13T13:34:04.239Z,3.40
2023-05-13T13:36:33.236Z,2.70
2023-05-13T13:39:02.138Z,2.40
2023-05-13T13:41:31.542Z,2.50
2023-05-13T13:44:00.512Z,2.20
2023-05-13T13:46:29.543Z,2.60
2023-05-13T13:48:58.455Z,2.20
2023-05-13T13:51:27.394Z,2.50
2023-05-13T13:53:57.132Z,2.40
2023-05-13T13:56:26.104Z,2.50
2023-05-13T13:58:55.085Z,2.80
2023-05-13T14:01:24.113Z,2.30
2023-05-13T14:03:53.729Z,2.70
2023-05-13T14:06:22.827Z,2.60
2023-05-13T14:08:52.003Z,2.80
2023-05-13T14:11:20.876Z,2.60
2023-05-13T14:13:49.769Z,2.20
2023-05-13T14:16:18.813Z,2.30
2023-05-13T14:18:47.938Z,2.30
2023-05-13T14:21:17.523Z,2.30
2023-05-13T14:23:46.731Z,2.50
2023-05-13T14:26:15.851Z,2.20
2023-05-13T14:28:45.134Z,2.10
2023-05-13T14:31:14.090Z,2.80
2023-05-13T14:33:43.099Z,2.50
2023-05-13T14:36:16.200Z,2.60
2023-05-13T14:38:45.199Z,2.10
2023-05-13T14:41:19.981Z,2.30
2023-05-13T14:43:49.593Z,2.10
2023-05-13T14:46:18.618Z,2.20
2023-05-13T14:48:47.871Z,2.60
2023-05-13T14:51:16.860Z,2.20
2023-05-13T14:53:46.078Z,2.10
2023-05-13T14:56:15.343Z,2.50
2023-05-13T14:58:44.390Z,2.70
2023-05-13T15:01:13.377Z,2.20
2023-05-13T15:03:42.523Z,2.30
2023-05-13T15:06:11.629Z,2.40
2023-05-13T15:08:40.628Z,2.70
2023-05-13T15:11:09.859Z,2.40
2023-05-13T15:13:39.470Z,2.40
2023-05-13T15:16:08.511Z,2.30
2023-05-13T15:18:37.813Z,2.80
2023-05-13T15:21:06.832Z,2.60
2023-05-13T15:23:36.062Z,2.20
2023-05-13T15:26:05.069Z,2.30
2023-05-13T15:28:33.962Z,2.10
2023-05-13T15:31:02.936Z,2.20
2023-05-13T15:33:33.663Z,2.40
2023-05-13T15:36:02.640Z,2.40
2023-05-13T15:38:32.064Z,3.00
2023-05-13T15:41:03.459Z,2.40
2023-05-13T15:43:34.362Z,2.30
2023-05-13T15:46:03.698Z,2.40
2023-05-13T15:48:32.962Z,2.50
2023-05-13T15:51:03.819Z,2.30
2023-05-13T15:53:32.877Z,2.40
2023-05-13T15:56:01.993Z,2.20
2023-05-13T15:58:31.429Z,2.80
2023-05-13T16:01:00.426Z,2.90
2023-05-13T16:03:29.433Z,2.90
2023-05-13T16:05:58.479Z,2.60
2023-05-13T16:08:27.722Z,2.40
2023-05-13T16:10:56.905Z,2.60
2023-05-13T16:13:25.936Z,2.40
2023-05-13T16:15:55.155Z,2.60
2023-05-13T16:18:24.187Z,2.50
2023-05-13T16:20:53.195Z,3.00
2023-05-13T16:23:22.430Z,2.80
2023-05-13T16:25:51.655Z,2.80
2023-05-13T16:28:20.626Z,3.00
2023-05-13T16:30:49.618Z,3.30
2023-05-13T16:33:18.602Z,2.90
2023-05-13T16:35:47.908Z,2.70
2023-05-13T16:38:16.851Z,2.70
2023-05-13T16:40:45.917Z,2.80
2023-05-13T16:43:15.344Z,2.90
2023-05-13T16:45:44.372Z,2.50
2023-05-13T16:48:14.503Z,2.70
2023-05-13T16:50:44.106Z,2.70
2023-05-13T16:53:13.603Z,2.90
2023-05-13T16:55:42.510Z,3.00
2023-05-13T16:58:11.529Z,3.40
2023-05-13T17:00:41.005Z,3.10
2023-05-13T17:03:10.550Z,2.70
2023-05-13T17:05:39.958Z,3.40
2023-05-13T17:08:08.861Z,2.90
2023-05-13T17:10:37.872Z,2.70
2023-05-13T17:13:06.760Z,2.70
2023-05-13T17:15:36.475Z,2.80
2023-05-13T17:18:05.507Z,3.00
2023-05-13T17:20:34.525Z,3.00
2023-05-13T17:23:03.404Z,3.00
2023-05-13T17:25:32.489Z,2.70
2023-05-13T17:28:01.369Z,3.10
2023-05-13T17:30:30.409Z,2.70
2023-05-13T17:32:59.427Z,3.20
2023-05-13T17:35:28.557Z,3.30
2023-05-13T17:37:57.565Z,2.50
2023-05-13T17:40:26.584Z,2.90
2023-05-13T17:42:56.233Z,2.90
2023-05-13T17:45:25.244Z,2.90
2023-05-13T17:47:54.395Z,3.10
2023-05-13T17:50:24.350Z,2.90
2023-05-13T17:52:53.544Z,2.90
2023-05-13T17:55:22.517Z,3.40
2023-05-13T17:57:51.526Z,3.30
2023-05-13T18:00:20.802Z,3.70
2023-05-13T18:02:50.045Z,3.50
2023-05-13T18:05:19.703Z,3.60
2023-05-13T18:07:48.723Z,3.90
2023-05-13T18:10:17.607Z,3.20
2023-05-13T18:12:46.546Z,3.40
2023-05-13T18:15:15.531Z,3.70
2023-05-13T18:17:44.460Z,3.50
2023-05-13T18:20:13.664Z,3.30
2023-05-13T18:22:42.629Z,4.40
2023-05-13T18:25:11.829Z,3.80
2023-05-13T18:27:40.791Z,3.90
2023-05-13T18:30:10.421Z,4.00
2023-05-13T18:32:39.409Z,3.60
2023-05-13T18:35:09.059Z,4.20
2023-05-13T18:37:38.059Z,4.00
2023-05-13T18:40:08.062Z,4.00
2023-05-13T18:42:37.099Z,3.70
2023-05-13T18:45:06.972Z,4.30
2023-05-13T18:47:35.966Z,3.60
2023-05-13T18:50:05.639Z,3.60
2023-05-13T18:52:34.595Z,4.10
2023-05-13T18:55:05.240Z,3.80
2023-05-13T18:57:34.100Z,3.90
2023-05-13T19:00:04.382Z,4.10
2023-05-13T19:02:35.178Z,4.50
2023-05-13T19:05:05.337Z,4.10
2023-05-13T19:07:34.228Z,4.30
2023-05-13T19:10:03.338Z,4.50
2023-05-13T19:12:32.373Z,4.60
2023-05-13T19:15:01.653Z,4.50
2023-05-13T19:17:31.151Z,4.40
2023-05-13T19:20:00.993Z,5.20
2023-05-13T19:22:29.996Z,5.00
2023-05-13T19:24:58.910Z,4.70
2023-05-13T19:27:27.810Z,4.90
2023-05-13T19:29:58.695Z,5.60
2023-05-13T19:32:27.682Z,5.10
2023-05-13T19:34:56.855Z,4.80
2023-05-13T19:37:26.462Z,5.00
2023-05-13T19:39:55.404Z,5.10
2023-05-13T19:42:24.426Z,5.10
2023-05-13T19:44:53.501Z,5.60
2023-05-13T19:47:22.392Z,5.30
2023-05-13T19:49:51.343Z,5.40
2023-05-13T19:52:20.329Z,4.70
2023-05-13T19:54:49.926Z,5.00
2023-05-13T19:57:18.830Z,5.80
2023-05-13T19:59:48.256Z,5.70
2023-05-13T20:02:17.232Z,5.60
2023-05-13T20:04:46.447Z,5.10
2023-05-13T20:07:15.965Z,5.40
2023-05-13T20:09:44.985Z,6.60
2023-05-13T20:12:13.809Z,6.40
2023-05-13T20:14:47.341Z,5.70
2023-05-13T20:17:21.130Z,6.70
2023-05-13T20:19:51.108Z,6.00
2023-05-13T20:22:20.228Z,6.90
2023-05-13T20:24:50.809Z,7.00
2023-05-13T20:27:20.013Z,6.90
2023-05-13T20:29:49.462Z,6.90
2023-05-13T20:32:25.022Z,6.70
2023-05-13T20:34:54.820Z,7.40
2023-05-13T20:37:24.222Z,6.10
2023-05-13T20:39:53.340Z,6.90
2023-05-13T20:42:22.884Z,7.00
2023-05-13T20:44:52.159Z,6.50
2023-05-13T20:47:21.677Z,7.40
2023-05-13T20:49:50.907Z,6.80
2023-05-13T20:52:19.871Z,7.20
2023-05-13T20:54:48.838Z,6.40
2023-05-13T20:57:17.680Z,6.40
2023-05-13T20:59:46.628Z,6.50
2023-05-13T21:02:15.538Z,6.90
2023-05-13T21:04:44.495Z,7.40
2023-05-13T21:07:13.697Z,6.70
2023-05-13T21:09:42.779Z,6.60
2023-05-13T21:12:11.762Z,5.90
2023-05-13T21:14:41.282Z,7.20
2023-05-13T21:17:10.731Z,6.60
2023-05-13T21:19:39.828Z,7.20
2023-05-13T21:22:09.010Z,6.50
2023-05-13T21:24:37.900Z,7.20
2023-05-13T21:27:06.793Z,6.00
2023-05-13T21:29:35.725Z,6.30
2023-05-13T21:32:04.884Z,6.60
2023-05-13T21:34:33.770Z,6.10
2023-05-13T21:37:02.729Z,6.60
2023-05-13T21:39:31.741Z,6.30
2023-05-13T21:42:00.857Z,6.40
2023-05-13T21:44:30.100Z,6.60
2023-05-13T21:46:59.046Z,6.10
2023-05-13T21:49:28.109Z,6.10
2023-05-13T21:51:56.988Z,7.20
2023-05-13T21:54:26.105Z,6.30
2023-05-13T21:56:55.014Z,5.80
2023-05-13T21:59:23.987Z,5.60
2023-05-13T22:01:52.997Z,5.20
2023-05-13T22:04:22.743Z,5.20
2023-05-13T22:06:52.993Z,5.20
2023-05-13T22:09:21.908Z,4.90
2023-05-13T22:11:51.301Z,5.00
2023-05-13T22:14:20.208Z,5.20
2023-05-13T22:17:00.865Z,5.20
2023-05-13T22:19:36.724Z,4.70
2023-05-13T22:22:06.038Z,4.30
2023-05-13T22:24:35.108Z,5.20
2023-05-13T22:27:04.196Z,5.20
2023-05-13T22:29:33.098Z,5.10
2023-05-13T22:32:02.706Z,5.60
2023-05-13T22:34:32.935Z,5.70
2023-05-13T22:37:01.929Z,6.10
2023-05-13T22:39:31.292Z,7.00
2023-05-13T22:42:00.274Z,6.10
2023-05-13T22:44:29.188Z,5.50
2023-05-13T22:46:58.106Z,5.60
2023-05-13T22:49:27.051Z,5.70
2023-05-13T22:51:56.142Z,5.20
2023-05-13T22:54:25.081Z,5.60
2023-05-13T22:56:54.175Z,5.10
2023-05-13T22:59:23.213Z,5.40
2023-05-13T23:01:52.182Z,4.70
2023-05-13T23:04:21.325Z,4.80
2023-05-13T23:06:50.463Z,4.80
2023-05-13T23:09:19.538Z,5.10
2023-05-13T23:11:48.633Z,4.90
2023-05-13T23:14:17.636Z,5.40
2023-05-13T23:16:46.884Z,4.90
2023-05-13T23:19:15.721Z,5.40
2023-05-13T23:21:44.675Z,5.20
2023-05-13T23:24:13.563Z,5.10
2023-05-13T23:26:44.772Z,5.00
2023-05-13T23:29:15.674Z,4.70
2023-05-13T23:31:44.797Z,5.00
2023-05-13T23:34:13.822Z,5.00
2023-05-13T23:36:43.067Z,5.20
2023-05-13T23:39:11.976Z,5.70
2023-05-13T23:41:40.997Z,5.90
2023-05-13T23:44:09.967Z,5.80
2023-05-13T23:46:39.060Z,5.40
2023-05-13T23:49:07.980Z,5.50
2023-05-13T23:51:36.932Z,6.10
2023-05-13T23:54:08.230Z,5.60
2023-05-13T23:56:37.329Z,6.60
2023-05-13T23:59:06.273Z,6.50
